Mariner Of The Seas — C6FV9 — position and weather

sailwx.info

Track history (hours):
 
Tides and Currents Weather Stations Pressure Air Temp Water Temp Dewpoint Dewpoint Depression Visibility Wind Speed Wind Dir Waves Ship Positions

Mariner Of The Seas

Operator: Royal Caribbean Cruises Ltd

Last reported at 2015-Jul-07 20:33 UTC. Time now 2015-Jul-07 22:01 UTC.
Position N 38°50' E 118°38'.

Type: Passenger vessel. MMSI: 311493000.

Date/timePositionNaut miles runAvg speedWind from/ knotsBaromVisibWave heightAir tempDewpointWater temp
2015-Jul-07 20:33N 38°50' E 118°38'1716.8
2015-Jul-07 19:33N 38°48' E 118°60'1616.3
2015-Jul-07 18:33N 38°46' E 119°20'1615.8
2015-Jul-07 17:34N 38°43' E 119°40'1615.5
2015-Jul-07 16:33N 38°41' E 119°60'1514.8
2015-Jul-07 15:33N 38°39' E 120°19'1414.5
2015-Jul-07 14:33N 38°38' E 120°37'1212.0
2015-Jul-07 13:34N 38°36' E 120°52'1313.1
2015-Jul-07 12:33N 38°32' E 121°08'1818.2
2015-Jul-07 11:33N 38°22' E 121°28'1918.8
2015-Jul-07 10:33N 38°13' E 121°49'1918.9
2015-Jul-07 09:33N 38°04' E 122°10'1918.6
2015-Jul-07 08:33N 37°54' E 122°30'1818.0
2015-Jul-07 07:33N 37°44' E 122°49'1817.6
2015-Jul-07 06:33N 37°35' E 123°08'40317.4
2015-Jul-06 07:27N 33°40' E 129°50'1618.0
2015-Jul-06 06:32N 33°45' E 130°09'1312.7
2015-Jul-06 05:32N 33°38' E 130°22'2 1.7
2015-Jul-06 04:26N 33°37' E 130°24'0 0.0
2015-Jul-06 03:32N 33°37' E 130°24'0 0.0
2015-Jul-05 16:20N 33°37' E 130°24'0 0.0
2015-Jul-05 15:32N 33°37' E 130°24'0 0.0
2015-Jul-05 13:32N 33°37' E 130°24'0 0.0
2015-Jul-05 08:26N 33°37' E 130°24'0 0.0
2015-Jul-05 07:32N 33°37' E 130°24'0 0.0
2015-Jul-05 04:08N 33°37' E 130°24'0 0.0
2015-Jul-05 03:32N 33°37' E 130°24'4 4.1
2015-Jul-05 02:33N 33°38' E 130°20'40316.4
2015-Jul-04 02:03N 37°16' E 123°24'918.8
2015-Jul-04 01:33N 37°24' E 123°17'1817.9
2015-Jul-04 00:33N 37°35' E 122°59'1818.0
2015-Jul-03 23:33N 37°43' E 122°39'5819.0
2015-Jul-03 20:31N 38°16' E 121°38'17417.3
2015-Jul-03 10:29N 38°56' E 118°02'1011.1
2015-Jul-03 09:33N 38°58' E 117°49'0 0.1
2015-Jul-03 08:32N 38°59' E 117°49'0 0.0
2015-Jul-03 06:32N 38°59' E 117°49'0 0.0
2015-Jul-03 05:32N 38°59' E 117°49'0 0.0
2015-Jul-03 04:32N 38°59' E 117°49'0 0.0
2015-Jul-03 03:08N 38°59' E 117°49'0 0.0
2015-Jul-03 02:14N 38°59' E 117°49'0 0.0
2015-Jul-03 01:26N 38°59' E 117°49'0 0.1
2015-Jul-03 00:33N 38°58' E 117°49'8216.3
2015-Jul-02 19:34N 38°46' E 119°32'2019.9
2015-Jul-02 18:33N 38°42' E 119°58'2019.6
2015-Jul-02 17:33N 38°40' E 120°23'2018.4
2015-Jul-02 16:28N 38°40' E 120°48'1111.3
2015-Jul-02 15:30N 38°33' E 120°60'3517.9
2015-Jul-02 13:33N 38°18' E 121°39'2019.6
2015-Jul-02 12:33N 38°07' E 122°00'2020.1
2015-Jul-02 11:33N 37°57' E 122°22'2121.0
2015-Jul-02 10:33N 37°46' E 122°45'2121.3
2015-Jul-02 09:33N 37°35' E 123°08'2120.7
2015-Jul-02 08:34N 37°20' E 123°25'2320.3
2015-Jul-02 07:25N 37°01' E 123°42'35916.9
2015-Jul-01 10:12N 33°40' E 129°47'1219.4
2015-Jul-01 09:33N 33°44' E 130°01'1413.9
2015-Jul-01 08:33N 33°39' E 130°17'6 6.1
2015-Jul-01 07:32N 33°37' E 130°24'0 0.0
2015-Jul-01 06:33N 33°37' E 130°24'0 0.0
2015-Jul-01 05:32N 33°37' E 130°24'0 0.0
2015-Jul-01 04:32N 33°37' E 130°24'0 0.0
2015-Jul-01 03:33N 33°37' E 130°24'0 0.0
2015-Jul-01 02:32N 33°37' E 130°24'0 0.0
2015-Jul-01 01:33N 33°37' E 130°24'0 0.0
2015-Jul-01 00:32N 33°37' E 130°24'0 0.0
2015-Jun-30 23:33N 33°37' E 130°24'0 0.0
2015-Jun-30 22:12N 33°37' E 130°24'0 0.1
2015-Jun-30 21:31N 33°37' E 130°24'5 5.2
2015-Jun-30 20:33N 33°39' E 130°18'40917.8
2015-Jun-29 21:33N 31°06' E 122°49'1717.1
2015-Jun-29 20:34N 31°05' E 122°29'1212.0
2015-Jun-29 19:32N 31°08' E 122°15'1414.7
2015-Jun-29 18:33N 31°15' E 122°00'1514.9
2015-Jun-29 17:34N 31°19' E 121°44'1211.8
2015-Jun-29 16:33N 31°25' E 121°32'1 1.1
2015-Jun-29 15:33N 31°25' E 121°30'0 0.0
2015-Jun-29 14:33N 31°25' E 121°30'0 0.0
2015-Jun-29 13:27N 31°25' E 121°30'0 0.0
2015-Jun-29 12:27N 31°25' E 121°30'0 0.0
2015-Jun-29 11:33N 31°25' E 121°30'0 0.0
2015-Jun-29 10:33N 31°25' E 121°30'0 0.0
2015-Jun-29 09:33N 31°25' E 121°30'0 0.0
2015-Jun-29 08:33N 31°25' E 121°30'0 0.0
2015-Jun-29 07:33N 31°25' E 121°30'0 0.0
2015-Jun-29 06:33N 31°25' E 121°30'0 0.0
2015-Jun-29 05:30N 31°25' E 121°30'0 0.0
2015-Jun-29 04:30N 31°25' E 121°30'0 0.0
2015-Jun-29 03:30N 31°25' E 121°30'0 0.0
2015-Jun-29 02:33N 31°25' E 121°30'0 0.0
2015-Jun-29 01:30N 31°25' E 121°30'0 0.0
2015-Jun-29 00:30N 31°25' E 121°30'0 0.0
2015-Jun-28 23:24N 31°25' E 121°30'0 0.0
2015-Jun-28 22:33N 31°25' E 121°30'2 2.4
2015-Jun-28 21:33N 31°24' E 121°33'1111.2
2015-Jun-28 20:33N 31°19' E 121°45'  
Track history (hours):
 
Tides and Currents Weather Stations Pressure Air Temp Water Temp Dewpoint Dewpoint Depression Visibility Wind Speed Wind Dir Waves Ship Positions

Mariner Of The Seas

Operator: Royal Caribbean Cruises Ltd

Last reported at 2015-Jul-07 20:33 UTC. Time now 2015-Jul-07 22:01 UTC.
Position N 38°50' E 118°38'.

Type: Passenger vessel. MMSI: 311493000.

Date/timePositionNaut miles runAvg speedWind from/ knotsBaromVisibWave heightAir tempDewpointWater temp
2015-Jul-07 20:33N 38°50' E 118°38'1716.8
2015-Jul-07 19:33N 38°48' E 118°60'1616.3
2015-Jul-07 18:33N 38°46' E 119°20'1615.8
2015-Jul-07 17:34N 38°43' E 119°40'1615.5
2015-Jul-07 16:33N 38°41' E 119°60'1514.8
2015-Jul-07 15:33N 38°39' E 120°19'1414.5
2015-Jul-07 14:33N 38°38' E 120°37'1212.0
2015-Jul-07 13:34N 38°36' E 120°52'1313.1
2015-Jul-07 12:33N 38°32' E 121°08'1818.2
2015-Jul-07 11:33N 38°22' E 121°28'1918.8
2015-Jul-07 10:33N 38°13' E 121°49'1918.9
2015-Jul-07 09:33N 38°04' E 122°10'1918.6
2015-Jul-07 08:33N 37°54' E 122°30'1818.0
2015-Jul-07 07:33N 37°44' E 122°49'1817.6
2015-Jul-07 06:33N 37°35' E 123°08'40317.4
2015-Jul-06 07:27N 33°40' E 129°50'1618.0
2015-Jul-06 06:32N 33°45' E 130°09'1312.7
2015-Jul-06 05:32N 33°38' E 130°22'2 1.7
2015-Jul-06 04:26N 33°37' E 130°24'0 0.0
2015-Jul-06 03:32N 33°37' E 130°24'0 0.0
2015-Jul-05 16:20N 33°37' E 130°24'0 0.0
2015-Jul-05 15:32N 33°37' E 130°24'0 0.0
2015-Jul-05 13:32N 33°37' E 130°24'0 0.0
2015-Jul-05 08:26N 33°37' E 130°24'0 0.0
2015-Jul-05 07:32N 33°37' E 130°24'0 0.0
2015-Jul-05 04:08N 33°37' E 130°24'0 0.0
2015-Jul-05 03:32N 33°37' E 130°24'4 4.1
2015-Jul-05 02:33N 33°38' E 130°20'40316.4
2015-Jul-04 02:03N 37°16' E 123°24'918.8
2015-Jul-04 01:33N 37°24' E 123°17'1817.9
2015-Jul-04 00:33N 37°35' E 122°59'1818.0
2015-Jul-03 23:33N 37°43' E 122°39'5819.0
2015-Jul-03 20:31N 38°16' E 121°38'17417.3
2015-Jul-03 10:29N 38°56' E 118°02'1011.1
2015-Jul-03 09:33N 38°58' E 117°49'0 0.1
2015-Jul-03 08:32N 38°59' E 117°49'0 0.0
2015-Jul-03 06:32N 38°59' E 117°49'0 0.0
2015-Jul-03 05:32N 38°59' E 117°49'0 0.0
2015-Jul-03 04:32N 38°59' E 117°49'0 0.0
2015-Jul-03 03:08N 38°59' E 117°49'0 0.0
2015-Jul-03 02:14N 38°59' E 117°49'0 0.0
2015-Jul-03 01:26N 38°59' E 117°49'0 0.1
2015-Jul-03 00:33N 38°58' E 117°49'8216.3
2015-Jul-02 19:34N 38°46' E 119°32'2019.9
2015-Jul-02 18:33N 38°42' E 119°58'2019.6
2015-Jul-02 17:33N 38°40' E 120°23'2018.4
2015-Jul-02 16:28N 38°40' E 120°48'1111.3
2015-Jul-02 15:30N 38°33' E 120°60'3517.9
2015-Jul-02 13:33N 38°18' E 121°39'2019.6
2015-Jul-02 12:33N 38°07' E 122°00'2020.1
2015-Jul-02 11:33N 37°57' E 122°22'2121.0
2015-Jul-02 10:33N 37°46' E 122°45'2121.3
2015-Jul-02 09:33N 37°35' E 123°08'2120.7
2015-Jul-02 08:34N 37°20' E 123°25'2320.3
2015-Jul-02 07:25N 37°01' E 123°42'35916.9
2015-Jul-01 10:12N 33°40' E 129°47'1219.4
2015-Jul-01 09:33N 33°44' E 130°01'1413.9
2015-Jul-01 08:33N 33°39' E 130°17'6 6.1
2015-Jul-01 07:32N 33°37' E 130°24'0 0.0
2015-Jul-01 06:33N 33°37' E 130°24'0 0.0
2015-Jul-01 05:32N 33°37' E 130°24'0 0.0
2015-Jul-01 04:32N 33°37' E 130°24'0 0.0
2015-Jul-01 03:33N 33°37' E 130°24'0 0.0
2015-Jul-01 02:32N 33°37' E 130°24'0 0.0
2015-Jul-01 01:33N 33°37' E 130°24'0 0.0
2015-Jul-01 00:32N 33°37' E 130°24'0 0.0
2015-Jun-30 23:33N 33°37' E 130°24'0 0.0
2015-Jun-30 22:12N 33°37' E 130°24'0 0.1
2015-Jun-30 21:31N 33°37' E 130°24'5 5.2
2015-Jun-30 20:33N 33°39' E 130°18'40917.8
2015-Jun-29 21:33N 31°06' E 122°49'1717.1
2015-Jun-29 20:34N 31°05' E 122°29'1212.0
2015-Jun-29 19:32N 31°08' E 122°15'1414.7
2015-Jun-29 18:33N 31°15' E 122°00'1514.9
2015-Jun-29 17:34N 31°19' E 121°44'1211.8
2015-Jun-29 16:33N 31°25' E 121°32'1 1.1
2015-Jun-29 15:33N 31°25' E 121°30'0 0.0
2015-Jun-29 14:33N 31°25' E 121°30'0 0.0
2015-Jun-29 13:27N 31°25' E 121°30'0 0.0
2015-Jun-29 12:27N 31°25' E 121°30'0 0.0
2015-Jun-29 11:33N 31°25' E 121°30'0 0.0
2015-Jun-29 10:33N 31°25' E 121°30'0 0.0
2015-Jun-29 09:33N 31°25' E 121°30'0 0.0
2015-Jun-29 08:33N 31°25' E 121°30'0 0.0
2015-Jun-29 07:33N 31°25' E 121°30'0 0.0
2015-Jun-29 06:33N 31°25' E 121°30'0 0.0
2015-Jun-29 05:30N 31°25' E 121°30'0 0.0
2015-Jun-29 04:30N 31°25' E 121°30'0 0.0
2015-Jun-29 03:30N 31°25' E 121°30'0 0.0
2015-Jun-29 02:33N 31°25' E 121°30'0 0.0
2015-Jun-29 01:30N 31°25' E 121°30'0 0.0
2015-Jun-29 00:30N 31°25' E 121°30'0 0.0
2015-Jun-28 23:24N 31°25' E 121°30'0 0.0
2015-Jun-28 22:33N 31°25' E 121°30'2 2.4
2015-Jun-28 21:33N 31°24' E 121°33'1111.2
2015-Jun-28 20:33N 31°19' E 121°45'  

Dump ship's entire track history